createdAt,value
2017-05-21T00:00:14.684Z,10.36
2017-05-21T00:01:16.106Z,10.53
2017-05-21T00:02:17.528Z,10.46
2017-05-21T00:03:18.951Z,10.33
2017-05-21T00:04:20.383Z,10.21
2017-05-21T00:05:21.810Z,10.25
2017-05-21T00:06:23.233Z,10.33
2017-05-21T00:07:24.666Z,10.34
2017-05-21T00:08:26.086Z,10.36
2017-05-21T00:09:27.514Z,10.42
2017-05-21T00:10:28.930Z,10.24
2017-05-21T00:11:30.352Z,10.30
2017-05-21T00:12:31.778Z,10.26
2017-05-21T00:13:33.202Z,10.28
2017-05-21T00:14:34.623Z,10.26
2017-05-21T00:15:36.053Z,10.37
2017-05-21T00:16:37.477Z,10.25
2017-05-21T00:17:38.901Z,10.37
2017-05-21T00:18:40.323Z,10.32
2017-05-21T00:19:41.749Z,10.36
2017-05-21T00:20:43.174Z,10.52
2017-05-21T00:21:44.605Z,10.32
2017-05-21T00:22:46.028Z,10.37
2017-05-21T00:23:47.457Z,10.32
2017-05-21T00:24:48.874Z,10.46
2017-05-21T00:25:50.305Z,10.56
2017-05-21T00:26:51.729Z,10.51
2017-05-21T00:27:53.146Z,10.52
2017-05-21T00:28:54.567Z,10.56
2017-05-21T00:29:56.015Z,10.62
2017-05-21T00:30:57.439Z,10.68
2017-05-21T00:31:58.919Z,10.51
2017-05-21T00:33:00.277Z,10.63
2017-05-21T00:34:01.713Z,10.60
2017-05-21T00:35:03.138Z,10.52
2017-05-21T00:36:04.566Z,10.55
2017-05-21T00:37:05.984Z,10.39
2017-05-21T00:38:07.408Z,10.43
2017-05-21T00:39:08.846Z,10.43
2017-05-21T00:40:10.258Z,10.43
2017-05-21T00:41:11.680Z,10.44
2017-05-21T00:42:13.123Z,10.26
2017-05-21T00:43:14.544Z,10.32
2017-05-21T00:44:15.973Z,10.26
2017-05-21T00:45:17.404Z,10.30
2017-05-21T00:46:18.823Z,10.10
2017-05-21T00:47:20.258Z,10.04
2017-05-21T00:48:21.683Z,10.10
2017-05-21T00:49:23.120Z,9.94
2017-05-21T00:50:24.541Z,10.06
2017-05-21T00:51:25.973Z,9.93
2017-05-21T00:52:27.387Z,9.93
2017-05-21T00:53:28.822Z,9.86
2017-05-21T00:54:30.459Z,9.97
2017-05-21T00:55:32.145Z,9.94
2017-05-21T00:56:33.572Z,9.76
2017-05-21T00:57:35.003Z,9.81
2017-05-21T00:58:36.424Z,9.81
2017-05-21T00:59:37.901Z,9.76
2017-05-21T01:00:39.323Z,9.85
2017-05-21T01:01:40.744Z,9.93
2017-05-21T01:02:42.170Z,9.91
2017-05-21T01:03:43.595Z,10.04
2017-05-21T01:04:45.023Z,9.91
2017-05-21T01:05:46.451Z,9.93
2017-05-21T01:06:47.961Z,9.94
2017-05-21T01:07:49.395Z,10.04
2017-05-21T01:08:50.814Z,9.82
2017-05-21T01:09:52.238Z,9.82
2017-05-21T01:10:53.676Z,9.99
2017-05-21T01:11:55.188Z,9.99
2017-05-21T01:12:56.614Z,10.06
2017-05-21T01:13:58.043Z,10.09
2017-05-21T01:14:59.472Z,10.09
2017-05-21T01:16:00.892Z,9.97
2017-05-21T01:17:02.317Z,9.81
2017-05-21T01:18:03.739Z,9.88
2017-05-21T01:19:05.163Z,9.81
2017-05-21T01:20:06.585Z,9.85
2017-05-21T01:21:08.009Z,9.67
2017-05-21T01:22:09.441Z,9.73
2017-05-21T01:23:10.866Z,9.67
2017-05-21T01:24:12.292Z,9.49
2017-05-21T01:25:13.713Z,9.61
2017-05-21T01:26:15.133Z,9.58
2017-05-21T01:27:16.569Z,9.63
2017-05-21T01:28:17.990Z,9.75
2017-05-21T01:29:19.408Z,9.81
2017-05-21T01:30:20.839Z,9.88
2017-05-21T01:31:22.263Z,9.79
2017-05-21T01:32:23.683Z,9.70
2017-05-21T01:33:25.114Z,9.86
2017-05-21T01:34:26.538Z,9.91
2017-05-21T01:35:27.961Z,9.96
2017-05-21T01:36:29.380Z,9.83
2017-05-21T01:37:30.801Z,9.75
2017-05-21T01:38:32.219Z,9.73
2017-05-21T01:39:33.651Z,9.85
2017-05-21T01:40:35.088Z,9.85
2017-05-21T01:41:36.513Z,9.81
2017-05-21T01:42:37.941Z,9.88
2017-05-21T01:43:39.357Z,9.86
2017-05-21T01:44:40.780Z,9.91
2017-05-21T01:45:42.204Z,10.06
2017-05-21T01:46:43.629Z,9.86
2017-05-21T01:47:45.056Z,9.67
2017-05-21T01:48:46.489Z,9.66
2017-05-21T01:49:47.907Z,9.53
2017-05-21T01:50:49.331Z,9.70
2017-05-21T01:51:50.752Z,9.58
2017-05-21T01:52:52.183Z,9.58
2017-05-21T01:53:53.603Z,9.56
2017-05-21T01:54:55.032Z,9.61
2017-05-21T01:55:56.450Z,9.45
2017-05-21T01:56:57.878Z,9.43
2017-05-21T01:57:59.296Z,9.35
2017-05-21T01:59:00.717Z,9.40
2017-05-21T02:00:02.156Z,9.39
2017-05-21T02:01:04.084Z,9.35
2017-05-21T02:02:05.509Z,9.23
2017-05-21T02:03:06.934Z,9.45
2017-05-21T02:04:08.358Z,9.48
2017-05-21T02:05:09.782Z,9.28
2017-05-21T02:06:11.195Z,9.32
2017-05-21T02:07:12.619Z,9.45
2017-05-21T02:08:14.038Z,9.23
2017-05-21T02:09:15.467Z,9.28
2017-05-21T02:10:16.887Z,9.38
2017-05-21T02:11:18.315Z,9.20
2017-05-21T02:12:19.740Z,9.16
2017-05-21T02:13:21.165Z,9.20
2017-05-21T02:14:22.591Z,9.21
2017-05-21T02:15:24.013Z,9.20
2017-05-21T02:16:25.431Z,9.27
2017-05-21T02:17:26.856Z,9.39
2017-05-21T02:18:28.282Z,9.21
2017-05-21T02:19:29.706Z,9.32
2017-05-21T02:20:31.127Z,9.20
2017-05-21T02:21:32.547Z,9.16
2017-05-21T02:22:33.977Z,9.23
2017-05-21T02:23:35.396Z,9.24
2017-05-21T02:24:36.820Z,9.18
2017-05-21T02:25:38.244Z,9.10
2017-05-21T02:26:39.664Z,9.06
2017-05-21T02:27:41.093Z,9.13
2017-05-21T02:28:42.523Z,9.25
2017-05-21T02:29:43.971Z,9.21
2017-05-21T02:30:45.432Z,9.13
2017-05-21T02:31:46.855Z,9.15
2017-05-21T02:32:48.335Z,9.12
2017-05-21T02:33:49.705Z,9.10
2017-05-21T02:34:51.134Z,9.06
2017-05-21T02:35:52.565Z,9.10
2017-05-21T02:36:53.985Z,9.04
2017-05-21T02:37:55.516Z,9.04
2017-05-21T02:38:56.934Z,8.94
2017-05-21T02:39:58.362Z,9.10
2017-05-21T02:40:59.795Z,9.30
2017-05-21T02:42:01.219Z,9.30
2017-05-21T02:43:02.645Z,9.32
2017-05-21T02:44:04.061Z,9.20
2017-05-21T02:45:06.402Z,9.23
2017-05-21T02:46:07.825Z,9.34
2017-05-21T02:47:09.249Z,9.43
2017-05-21T02:48:10.681Z,9.35
2017-05-21T02:49:12.101Z,9.23
2017-05-21T02:50:13.522Z,9.38
2017-05-21T02:51:14.951Z,9.25
2017-05-21T02:52:16.371Z,9.21
2017-05-21T02:53:17.797Z,9.31
2017-05-21T02:54:19.221Z,9.40
2017-05-21T02:55:20.641Z,9.50
2017-05-21T02:56:22.117Z,9.39
2017-05-21T02:57:23.489Z,9.52
2017-05-21T02:58:24.918Z,9.60
2017-05-21T02:59:26.335Z,9.45
2017-05-21T03:00:27.760Z,9.39
2017-05-21T03:01:29.175Z,9.52
2017-05-21T03:02:30.600Z,9.52
2017-05-21T03:03:32.025Z,9.52
2017-05-21T03:04:33.448Z,9.49
2017-05-21T03:05:34.868Z,9.50
2017-05-21T03:06:36.294Z,9.48
2017-05-21T03:07:37.720Z,9.42
2017-05-21T03:08:39.149Z,9.34
2017-05-21T03:09:40.566Z,9.18
2017-05-21T03:10:41.993Z,9.09
2017-05-21T03:11:43.413Z,8.84
2017-05-21T03:12:44.838Z,8.83
2017-05-21T03:13:46.262Z,8.91
2017-05-21T03:14:47.683Z,8.84
2017-05-21T03:15:49.101Z,8.93
2017-05-21T03:16:50.522Z,8.83
2017-05-21T03:17:51.952Z,8.94
2017-05-21T03:18:53.375Z,8.68
2017-05-21T03:19:54.801Z,8.73
2017-05-21T03:20:56.223Z,8.63
2017-05-21T03:21:57.644Z,8.83
2017-05-21T03:22:59.066Z,8.84
2017-05-21T03:24:00.493Z,8.88
2017-05-21T03:25:02.005Z,8.94
2017-05-21T03:26:03.428Z,8.83
2017-05-21T03:27:04.852Z,8.73
2017-05-21T03:28:06.275Z,8.87
2017-05-21T03:29:07.700Z,9.04
2017-05-21T03:30:09.131Z,9.04
2017-05-21T03:31:10.550Z,8.90
2017-05-21T03:32:11.983Z,9.02
2017-05-21T03:33:13.412Z,8.94
2017-05-21T03:34:14.833Z,9.05
2017-05-21T03:35:16.254Z,9.09
2017-05-21T03:36:17.681Z,9.12
2017-05-21T03:37:19.102Z,9.25
2017-05-21T03:38:20.523Z,9.06
2017-05-21T03:39:21.954Z,9.02
2017-05-21T03:40:23.374Z,8.97
2017-05-21T03:41:24.797Z,8.99
2017-05-21T03:42:26.217Z,9.16
2017-05-21T03:43:27.643Z,9.04
2017-05-21T03:44:29.064Z,9.20
2017-05-21T03:45:30.488Z,8.84
2017-05-21T03:46:31.906Z,8.81
2017-05-21T03:47:33.334Z,8.81
2017-05-21T03:48:34.757Z,8.75
2017-05-21T03:49:36.187Z,8.84
2017-05-21T03:50:37.610Z,8.84
2017-05-21T03:51:39.269Z,8.86
2017-05-21T03:52:40.685Z,9.01
2017-05-21T03:53:42.107Z,9.09
2017-05-21T03:54:43.521Z,9.25
2017-05-21T03:55:44.953Z,9.09
2017-05-21T03:56:46.395Z,8.96
2017-05-21T03:57:47.822Z,8.96
2017-05-21T03:58:49.253Z,8.93
2017-05-21T03:59:50.675Z,8.84
2017-05-21T04:00:52.101Z,8.84
2017-05-21T04:01:53.524Z,8.78
2017-05-21T04:02:54.956Z,8.84
2017-05-21T04:03:56.375Z,8.66
2017-05-21T04:04:57.802Z,8.72
2017-05-21T04:05:59.225Z,8.78
2017-05-21T04:07:00.652Z,8.69
2017-05-21T04:08:02.075Z,8.76
2017-05-21T04:09:03.495Z,8.72
2017-05-21T04:10:04.918Z,8.84
2017-05-21T04:11:06.343Z,8.84
2017-05-21T04:12:07.764Z,8.99
2017-05-21T04:13:09.186Z,8.94
2017-05-21T04:14:10.611Z,8.90
2017-05-21T04:15:12.035Z,9.02
2017-05-21T04:16:13.466Z,9.05
2017-05-21T04:17:14.886Z,9.05
2017-05-21T04:18:16.309Z,9.09
2017-05-21T04:19:17.732Z,9.27
2017-05-21T04:20:19.178Z,9.48
2017-05-21T04:21:20.603Z,9.20
2017-05-21T04:22:22.025Z,9.04
2017-05-21T04:23:23.452Z,8.91
2017-05-21T04:24:24.879Z,8.81
2017-05-21T04:25:26.309Z,9.06
2017-05-21T04:26:27.737Z,9.02
2017-05-21T04:27:29.162Z,8.99
2017-05-21T04:28:30.588Z,9.15
2017-05-21T04:29:32.017Z,9.06
2017-05-21T04:30:33.442Z,9.13
2017-05-21T04:31:34.865Z,9.18
2017-05-21T04:32:36.294Z,9.34
2017-05-21T04:33:37.728Z,9.56
2017-05-21T04:34:39.156Z,9.49
2017-05-21T04:35:40.581Z,9.66
2017-05-21T04:36:42.011Z,9.39
2017-05-21T04:37:43.527Z,9.32
2017-05-21T04:38:44.949Z,9.32
2017-05-21T04:39:46.371Z,9.40
2017-05-21T04:40:47.803Z,9.39
2017-05-21T04:41:49.233Z,9.40
2017-05-21T04:42:50.656Z,9.34
2017-05-21T04:43:52.084Z,9.57
2017-05-21T04:44:53.510Z,9.60
2017-05-21T04:45:54.934Z,9.56
2017-05-21T04:46:56.367Z,9.43
2017-05-21T04:47:57.791Z,9.40
2017-05-21T04:48:59.223Z,9.39
2017-05-21T04:50:00.648Z,9.40
2017-05-21T04:51:02.080Z,9.30
2017-05-21T04:52:03.508Z,9.35
2017-05-21T04:53:05.646Z,9.31
2017-05-21T04:54:07.079Z,9.40
2017-05-21T04:55:08.494Z,9.35
2017-05-21T04:56:09.931Z,9.43
2017-05-21T04:57:11.357Z,9.42
2017-05-21T04:58:12.772Z,9.39
2017-05-21T04:59:14.191Z,9.32
2017-05-21T05:00:15.618Z,9.43
2017-05-21T05:01:17.044Z,9.46
2017-05-21T05:02:18.467Z,9.49
2017-05-21T05:03:19.892Z,9.39
2017-05-21T05:04:21.315Z,9.35
2017-05-21T05:05:22.738Z,9.64
2017-05-21T05:06:24.165Z,9.50
2017-05-21T05:07:25.596Z,9.52
2017-05-21T05:08:27.019Z,9.53
2017-05-21T05:09:28.448Z,9.45
2017-05-21T05:10:29.875Z,9.49
2017-05-21T05:11:31.302Z,9.53
2017-05-21T05:12:32.736Z,9.56
2017-05-21T05:13:34.158Z,9.71
2017-05-21T05:14:35.594Z,9.68
2017-05-21T05:15:37.019Z,9.68
2017-05-21T05:16:38.446Z,9.71
2017-05-21T05:17:39.896Z,9.79
2017-05-21T05:18:41.334Z,9.97
2017-05-21T05:19:42.766Z,10.15
2017-05-21T05:20:44.195Z,10.18
2017-05-21T05:21:45.629Z,10.30
2017-05-21T05:22:47.053Z,10.44
2017-05-21T05:23:48.485Z,10.46
2017-05-21T05:24:49.986Z,10.53
2017-05-21T05:25:51.417Z,10.55
2017-05-21T05:26:52.843Z,10.70
2017-05-21T05:27:54.277Z,10.95
2017-05-21T05:28:55.729Z,10.76
2017-05-21T05:29:57.163Z,10.80
2017-05-21T05:30:58.595Z,10.81
2017-05-21T05:32:00.024Z,10.91
2017-05-21T05:33:01.453Z,10.99
2017-05-21T05:34:02.877Z,11.06
2017-05-21T05:35:04.310Z,11.13
2017-05-21T05:36:05.739Z,11.16
2017-05-21T05:37:07.219Z,11.35
2017-05-21T05:38:08.648Z,11.13
2017-05-21T05:39:10.074Z,11.24
2017-05-21T05:40:11.510Z,11.36
2017-05-21T05:41:12.941Z,11.64
2017-05-21T05:42:14.367Z,11.82
2017-05-21T05:43:15.798Z,11.71
2017-05-21T05:44:17.231Z,11.82
2017-05-21T05:45:18.655Z,11.87
2017-05-21T05:46:20.089Z,12.04
2017-05-21T05:47:21.517Z,12.01
2017-05-21T05:48:22.943Z,12.11
2017-05-21T05:49:24.372Z,12.13
2017-05-21T05:50:25.807Z,12.23
2017-05-21T05:51:27.238Z,12.27
2017-05-21T05:52:28.753Z,12.20
2017-05-21T05:53:30.114Z,12.34
2017-05-21T05:54:31.543Z,12.46
2017-05-21T05:55:32.967Z,12.46
2017-05-21T05:56:34.399Z,12.37
2017-05-21T05:57:35.830Z,12.33
2017-05-21T05:58:37.258Z,12.23
2017-05-21T05:59:38.691Z,12.23
2017-05-21T06:00:40.121Z,12.05
2017-05-21T06:01:41.551Z,12.08
2017-05-21T06:02:42.982Z,12.23
2017-05-21T06:03:44.429Z,12.34
2017-05-21T06:04:45.856Z,12.46
2017-05-21T06:05:47.281Z,12.69
2017-05-21T06:06:48.717Z,12.75
2017-05-21T06:07:50.143Z,12.74
2017-05-21T06:08:52.276Z,12.82
2017-05-21T06:09:53.705Z,12.78
2017-05-21T06:10:55.139Z,12.87
2017-05-21T06:11:56.565Z,12.74
2017-05-21T06:12:57.998Z,12.93
2017-05-21T06:13:59.421Z,12.96
2017-05-21T06:15:00.851Z,13.07
2017-05-21T06:16:02.279Z,13.24
2017-05-21T06:17:03.713Z,13.21
2017-05-21T06:18:05.148Z,13.29
2017-05-21T06:19:06.569Z,13.32
2017-05-21T06:20:08.001Z,13.22
2017-05-21T06:21:09.437Z,13.20
2017-05-21T06:22:10.868Z,13.40
2017-05-21T06:23:12.296Z,13.30
2017-05-21T06:24:13.727Z,13.55
2017-05-21T06:25:15.159Z,13.52
2017-05-21T06:26:16.586Z,13.59
2017-05-21T06:27:18.021Z,13.70
2017-05-21T06:28:19.477Z,13.69
2017-05-21T06:29:20.906Z,13.70
2017-05-21T06:30:22.344Z,13.67
2017-05-21T06:31:23.779Z,13.79
2017-05-21T06:32:25.216Z,13.88
2017-05-21T06:33:26.648Z,13.94
2017-05-21T06:34:28.088Z,13.92
2017-05-21T06:35:29.637Z,13.96
2017-05-21T06:36:31.071Z,13.89
2017-05-21T06:37:32.506Z,14.07
2017-05-21T06:38:33.935Z,14.06
2017-05-21T06:39:35.368Z,14.10
2017-05-21T06:40:36.799Z,14.13
2017-05-21T06:41:38.224Z,14.13
2017-05-21T06:42:39.732Z,14.35
2017-05-21T06:43:41.165Z,14.37
2017-05-21T06:44:42.591Z,14.34
2017-05-21T06:45:44.041Z,14.32
2017-05-21T06:46:45.478Z,14.43
2017-05-21T06:47:46.903Z,14.42
2017-05-21T06:48:48.333Z,14.57
2017-05-21T06:49:49.770Z,14.56
2017-05-21T06:50:51.288Z,14.74
2017-05-21T06:51:52.721Z,14.93
2017-05-21T06:52:54.152Z,15.02
2017-05-21T06:53:55.589Z,15.02
2017-05-21T06:54:57.025Z,15.17
2017-05-21T06:55:58.459Z,15.23
2017-05-21T06:56:59.889Z,15.30
2017-05-21T06:58:01.327Z,15.27
2017-05-21T06:59:02.756Z,15.42
2017-05-21T07:00:04.207Z,15.30
2017-05-21T07:01:05.707Z,15.26
2017-05-21T07:02:07.150Z,15.41
2017-05-21T07:03:08.583Z,15.48
2017-05-21T07:04:10.025Z,15.46
2017-05-21T07:05:11.458Z,15.39
2017-05-21T07:06:12.895Z,15.52
2017-05-21T07:07:14.331Z,15.48
2017-05-21T07:08:15.751Z,15.63
2017-05-21T07:09:17.190Z,15.57
2017-05-21T07:10:18.623Z,15.63
2017-05-21T07:11:20.049Z,15.70
2017-05-21T07:12:21.622Z,15.59
2017-05-21T07:13:23.054Z,15.59
2017-05-21T07:14:24.484Z,15.54
2017-05-21T07:15:25.919Z,15.68
2017-05-21T07:16:27.354Z,15.61
2017-05-21T07:17:28.784Z,15.52
2017-05-21T07:18:30.213Z,15.49
2017-05-21T07:19:31.652Z,15.59
2017-05-21T07:20:33.097Z,15.61
2017-05-21T07:21:34.529Z,15.84
2017-05-21T07:22:35.968Z,15.82
2017-05-21T07:23:37.413Z,15.70
2017-05-21T07:24:38.850Z,15.84
2017-05-21T07:25:40.284Z,15.75
2017-05-21T07:26:41.820Z,15.79
2017-05-21T07:27:43.322Z,15.64
2017-05-21T07:28:44.750Z,15.68
2017-05-21T07:29:46.184Z,15.68
2017-05-21T07:30:47.615Z,15.63
2017-05-21T07:31:49.047Z,15.59
2017-05-21T07:32:50.479Z,15.68
2017-05-21T07:33:51.909Z,15.57
2017-05-21T07:34:53.344Z,15.68
2017-05-21T07:35:54.775Z,15.70
2017-05-21T07:36:56.202Z,15.68
2017-05-21T07:37:57.636Z,15.82
2017-05-21T07:38:59.075Z,16.01
2017-05-21T07:40:00.498Z,16.12
2017-05-21T07:41:01.936Z,16.25
2017-05-21T07:42:03.374Z,16.16
2017-05-21T07:43:04.808Z,16.23
2017-05-21T07:44:06.243Z,16.26
2017-05-21T07:45:07.675Z,16.07
2017-05-21T07:46:09.103Z,16.26
2017-05-21T07:47:10.536Z,16.11
2017-05-21T07:48:11.962Z,16.06
2017-05-21T07:49:13.391Z,16.16
2017-05-21T07:50:14.822Z,16.23
2017-05-21T07:51:16.260Z,16.12
2017-05-21T07:52:17.695Z,16.20
2017-05-21T07:53:19.125Z,16.25
2017-05-21T07:54:20.559Z,16.31
2017-05-21T07:55:22.000Z,16.14
2017-05-21T07:56:23.437Z,16.31
2017-05-21T07:57:24.874Z,16.49
2017-05-21T07:58:26.305Z,16.50
2017-05-21T07:59:27.738Z,16.65
2017-05-21T08:00:29.176Z,16.58
2017-05-21T08:01:30.607Z,16.45
2017-05-21T08:02:32.035Z,16.34
2017-05-21T08:03:34.405Z,16.56
2017-05-21T08:04:34.857Z,16.59
2017-05-21T08:05:36.284Z,16.50
2017-05-21T08:06:37.715Z,16.56
2017-05-21T08:07:39.148Z,16.58
2017-05-21T08:08:40.575Z,16.80
2017-05-21T08:09:42.009Z,16.80
2017-05-21T08:10:43.436Z,16.55
2017-05-21T08:11:44.865Z,16.68
2017-05-21T08:12:46.297Z,16.58
2017-05-21T08:13:47.733Z,16.68
2017-05-21T08:14:49.167Z,16.73
2017-05-21T08:15:50.607Z,16.83
2017-05-21T08:16:52.035Z,16.80
2017-05-21T08:17:53.474Z,16.93
2017-05-21T08:18:54.906Z,17.13
2017-05-21T08:19:56.342Z,17.03
2017-05-21T08:20:57.771Z,16.88
2017-05-21T08:21:59.203Z,17.11
2017-05-21T08:23:00.631Z,17.23
2017-05-21T08:24:02.063Z,17.07
2017-05-21T08:25:03.495Z,17.23
2017-05-21T08:26:04.926Z,17.08
2017-05-21T08:27:07.136Z,16.99
2017-05-21T08:28:08.572Z,17.18
2017-05-21T08:29:09.997Z,17.22
2017-05-21T08:30:11.430Z,17.51
2017-05-21T08:31:12.856Z,17.43
2017-05-21T08:32:14.293Z,17.46
2017-05-21T08:33:15.731Z,17.35
2017-05-21T08:34:17.163Z,17.55
2017-05-21T08:35:18.592Z,17.44
2017-05-21T08:36:20.035Z,17.55
2017-05-21T08:37:21.477Z,17.76
2017-05-21T08:38:22.907Z,18.02
2017-05-21T08:39:24.338Z,18.06
2017-05-21T08:40:25.774Z,17.88
2017-05-21T08:41:27.254Z,17.81
2017-05-21T08:42:28.685Z,17.87
2017-05-21T08:43:30.114Z,18.00
2017-05-21T08:44:31.549Z,18.18
2017-05-21T08:45:32.984Z,18.31
2017-05-21T08:46:34.421Z,18.27
2017-05-21T08:47:35.863Z,18.22
2017-05-21T08:48:37.375Z,17.94
2017-05-21T08:49:38.800Z,18.07
2017-05-21T08:50:40.470Z,18.04
2017-05-21T08:51:41.894Z,17.89
2017-05-21T08:52:43.324Z,17.78
2017-05-21T08:53:44.758Z,17.79
2017-05-21T08:54:46.193Z,17.87
2017-05-21T08:55:47.632Z,17.51
2017-05-21T08:56:49.061Z,17.43
2017-05-21T08:57:50.492Z,17.46
2017-05-21T08:58:51.918Z,17.69
2017-05-21T08:59:53.357Z,17.78
2017-05-21T09:00:54.784Z,17.74
2017-05-21T09:01:56.212Z,17.59
2017-05-21T09:02:57.649Z,17.76
2017-05-21T09:03:59.086Z,17.88
2017-05-21T09:05:00.517Z,17.87
2017-05-21T09:06:01.956Z,17.76
2017-05-21T09:07:03.384Z,17.78
2017-05-21T09:08:04.818Z,17.89
2017-05-21T09:09:06.251Z,18.03
2017-05-21T09:10:07.731Z,18.19
2017-05-21T09:11:09.166Z,18.04
2017-05-21T09:12:10.597Z,17.99
2017-05-21T09:13:12.038Z,18.22
2017-05-21T09:14:13.485Z,18.50
2017-05-21T09:15:14.916Z,18.64
2017-05-21T09:16:16.953Z,18.90
2017-05-21T09:17:18.362Z,19.01
2017-05-21T09:18:19.797Z,19.02
2017-05-21T09:19:21.226Z,19.02
2017-05-21T09:20:22.664Z,19.20
2017-05-21T09:21:24.097Z,19.35
2017-05-21T09:22:25.533Z,19.48
2017-05-21T09:23:26.979Z,19.23
2017-05-21T09:24:28.430Z,19.39
2017-05-21T09:25:30.660Z,19.55
2017-05-21T09:26:32.101Z,19.33
2017-05-21T09:27:33.539Z,19.51
2017-05-21T09:28:34.991Z,19.65
2017-05-21T09:29:36.424Z,19.43
2017-05-21T09:30:37.862Z,19.32
2017-05-21T09:31:39.291Z,19.42
2017-05-21T09:32:40.731Z,19.42
2017-05-21T09:33:42.168Z,19.54
2017-05-21T09:34:43.603Z,19.66
2017-05-21T09:35:45.043Z,19.60
2017-05-21T09:36:46.478Z,19.43
2017-05-21T09:37:47.909Z,19.38
2017-05-21T09:38:49.416Z,19.43
2017-05-21T09:39:50.795Z,19.36
2017-05-21T09:40:52.260Z,19.15
2017-05-21T09:41:53.681Z,19.21
2017-05-21T09:42:55.109Z,19.31
2017-05-21T09:43:56.556Z,19.35
2017-05-21T09:44:57.996Z,19.28
2017-05-21T09:45:59.455Z,19.25
2017-05-21T09:47:00.889Z,19.28
2017-05-21T09:48:02.327Z,19.06
2017-05-21T09:49:03.768Z,19.01
2017-05-21T09:50:05.211Z,19.10
2017-05-21T09:51:06.645Z,18.94
2017-05-21T09:52:08.096Z,18.98
2017-05-21T09:53:09.544Z,18.84
2017-05-21T09:54:10.967Z,18.90
2017-05-21T09:55:12.398Z,18.87
2017-05-21T09:56:13.836Z,18.97
2017-05-21T09:57:15.276Z,19.06
2017-05-21T09:58:16.709Z,19.55
2017-05-21T09:59:18.165Z,19.51
2017-05-21T10:00:19.608Z,19.58
2017-05-21T10:01:21.050Z,19.38
2017-05-21T10:02:22.486Z,19.57
2017-05-21T10:03:23.917Z,19.29
2017-05-21T10:04:25.357Z,19.47
2017-05-21T10:05:26.805Z,19.70
2017-05-21T10:06:28.239Z,19.88
2017-05-21T10:07:30.419Z,20.06
2017-05-21T10:08:31.856Z,20.16
2017-05-21T10:09:33.424Z,20.53
2017-05-21T10:10:34.862Z,20.76
2017-05-21T10:11:36.293Z,20.53
2017-05-21T10:12:37.740Z,20.18
2017-05-21T10:13:39.177Z,19.93
2017-05-21T10:14:40.618Z,19.94
2017-05-21T10:15:42.065Z,20.16
2017-05-21T10:16:43.506Z,19.76
2017-05-21T10:17:44.941Z,20.02
2017-05-21T10:18:46.384Z,20.16
2017-05-21T10:19:47.848Z,19.95
2017-05-21T10:20:49.307Z,20.39
2017-05-21T10:21:50.746Z,20.64
2017-05-21T10:22:52.196Z,20.79
2017-05-21T10:23:53.638Z,20.95
2017-05-21T10:24:55.125Z,20.98
2017-05-21T10:25:56.516Z,20.53
2017-05-21T10:26:57.951Z,20.28
2017-05-21T10:27:59.394Z,20.72
2017-05-21T10:29:00.830Z,20.95
2017-05-21T10:30:02.277Z,20.84
2017-05-21T10:31:03.715Z,20.89
2017-05-21T10:32:05.146Z,20.66
2017-05-21T10:33:06.590Z,20.51
2017-05-21T10:34:08.078Z,20.77
2017-05-21T10:35:09.531Z,20.47
2017-05-21T10:36:10.968Z,20.65
2017-05-21T10:37:12.409Z,20.99
2017-05-21T10:38:13.851Z,21.23
2017-05-21T10:39:16.094Z,21.50
2017-05-21T10:40:17.524Z,21.75
2017-05-21T10:41:18.973Z,21.71
2017-05-21T10:42:20.404Z,21.90
2017-05-21T10:43:21.836Z,21.92
2017-05-21T10:44:23.275Z,22.09
2017-05-21T10:45:24.714Z,21.78
2017-05-21T10:46:26.161Z,21.90
2017-05-21T10:47:27.610Z,21.74
2017-05-21T10:48:29.050Z,21.63
2017-05-21T10:49:30.489Z,21.83
2017-05-21T10:50:31.924Z,22.02
2017-05-21T10:51:33.363Z,21.79
2017-05-21T10:52:34.798Z,21.63
2017-05-21T10:53:36.240Z,21.72
2017-05-21T10:54:37.706Z,21.83
2017-05-21T10:55:39.143Z,21.95
2017-05-21T10:56:40.588Z,22.07
2017-05-21T10:57:42.034Z,21.67
2017-05-21T10:58:43.502Z,21.82
2017-05-21T10:59:44.962Z,21.44
2017-05-21T11:00:46.403Z,21.42
2017-05-21T11:01:48.358Z,21.35
2017-05-21T11:02:49.798Z,20.72
2017-05-21T11:03:51.233Z,20.81
2017-05-21T11:04:52.678Z,20.77
2017-05-21T11:05:54.120Z,20.96
2017-05-21T11:06:55.555Z,20.69
2017-05-21T11:07:56.989Z,20.53
2017-05-21T11:08:58.427Z,20.53
2017-05-21T11:09:59.879Z,20.61
2017-05-21T11:11:01.324Z,20.54
2017-05-21T11:12:02.758Z,20.59
2017-05-21T11:13:04.201Z,20.47
2017-05-21T11:14:05.648Z,20.50
2017-05-21T11:15:07.099Z,20.35
2017-05-21T11:16:08.746Z,20.41
2017-05-21T11:17:10.375Z,20.66
2017-05-21T11:18:11.803Z,20.79
2017-05-21T11:19:13.243Z,20.89
2017-05-21T11:20:14.678Z,20.79
2017-05-21T11:21:16.122Z,20.72
2017-05-21T11:22:17.561Z,21.01
2017-05-21T11:23:19.010Z,21.34
2017-05-21T11:24:20.446Z,21.78
2017-05-21T11:25:21.887Z,21.99
2017-05-21T11:26:23.327Z,22.16
2017-05-21T11:27:24.764Z,22.29
2017-05-21T11:28:26.199Z,22.69
2017-05-21T11:29:27.637Z,22.82
2017-05-21T11:30:29.074Z,22.78
2017-05-21T11:31:30.517Z,22.56
2017-05-21T11:32:31.946Z,22.31
2017-05-21T11:33:34.159Z,22.44
2017-05-21T11:34:35.597Z,22.41
2017-05-21T11:35:37.032Z,22.12
2017-05-21T11:36:38.469Z,22.16
2017-05-21T11:37:39.916Z,22.53
2017-05-21T11:38:41.354Z,22.39
2017-05-21T11:39:42.796Z,23.01
2017-05-21T11:40:44.924Z,22.89
2017-05-21T11:41:46.357Z,23.08
2017-05-21T11:42:47.798Z,23.17
2017-05-21T11:43:49.244Z,23.34
2017-05-21T11:44:50.672Z,23.65
2017-05-21T11:45:52.122Z,23.72
2017-05-21T11:46:53.560Z,23.77
2017-05-21T11:47:54.994Z,23.79
2017-05-21T11:48:56.437Z,23.71
2017-05-21T11:49:57.878Z,23.52
2017-05-21T11:50:59.335Z,23.77
2017-05-21T11:52:00.878Z,23.70
2017-05-21T11:53:02.341Z,23.83
2017-05-21T11:54:03.779Z,23.34
2017-05-21T11:55:05.217Z,23.29
2017-05-21T11:56:06.664Z,23.75
2017-05-21T11:57:08.112Z,23.98
2017-05-21T11:58:09.552Z,23.95
2017-05-21T11:59:10.984Z,23.77
2017-05-21T12:00:12.431Z,23.85
2017-05-21T12:01:13.868Z,23.67
2017-05-21T12:02:15.309Z,23.52
2017-05-21T12:03:16.746Z,23.43
2017-05-21T12:04:18.191Z,23.55
2017-05-21T12:05:19.627Z,23.20
2017-05-21T12:06:21.077Z,23.01
2017-05-21T12:07:22.506Z,22.60
2017-05-21T12:08:23.943Z,22.62
2017-05-21T12:09:25.391Z,22.57
2017-05-21T12:10:26.827Z,22.41
2017-05-21T12:11:28.266Z,22.38
2017-05-21T12:12:29.703Z,22.22
2017-05-21T12:13:31.145Z,22.25
2017-05-21T12:14:32.590Z,22.25
2017-05-21T12:15:34.024Z,22.41
2017-05-21T12:16:35.468Z,22.46
2017-05-21T12:17:36.926Z,22.52
2017-05-21T12:18:38.369Z,22.65
2017-05-21T12:19:39.801Z,22.89
2017-05-21T12:20:41.233Z,22.74
2017-05-21T12:21:42.679Z,22.89
2017-05-21T12:22:44.119Z,22.57
2017-05-21T12:23:45.560Z,22.90
2017-05-21T12:24:47.000Z,22.87
2017-05-21T12:25:48.443Z,23.08
2017-05-21T12:26:49.878Z,22.96
2017-05-21T12:27:51.318Z,22.38
2017-05-21T12:28:52.764Z,22.29
2017-05-21T12:29:54.205Z,22.14
2017-05-21T12:30:55.643Z,22.28
2017-05-21T12:31:57.084Z,22.54
2017-05-21T12:32:58.522Z,22.32
2017-05-21T12:33:59.962Z,22.67
2017-05-21T12:35:01.400Z,23.05
2017-05-21T12:36:02.848Z,23.27
2017-05-21T12:37:04.290Z,23.09
2017-05-21T12:38:05.723Z,22.44
2017-05-21T12:39:07.167Z,22.74
2017-05-21T12:40:08.607Z,22.59
2017-05-21T12:41:10.193Z,22.75
2017-05-21T12:42:11.626Z,23.09
2017-05-21T12:43:13.064Z,23.45
2017-05-21T12:44:14.500Z,23.20
2017-05-21T12:45:15.940Z,23.15
2017-05-21T12:46:17.377Z,23.47
2017-05-21T12:47:18.822Z,23.61
2017-05-21T12:48:20.258Z,23.82
2017-05-21T12:49:21.696Z,23.65
2017-05-21T12:50:23.143Z,23.68
2017-05-21T12:51:24.584Z,23.14
2017-05-21T12:52:26.027Z,23.19
2017-05-21T12:53:27.462Z,23.39
2017-05-21T12:54:29.728Z,23.49
2017-05-21T12:55:31.175Z,23.15
2017-05-21T12:56:32.611Z,23.35
2017-05-21T12:57:34.054Z,23.68
2017-05-21T12:58:35.603Z,23.71
2017-05-21T12:59:37.038Z,23.55
2017-05-21T13:00:38.474Z,23.71
2017-05-21T13:01:39.918Z,23.72
2017-05-21T13:02:41.365Z,23.50
2017-05-21T13:03:42.808Z,23.53
2017-05-21T13:04:44.242Z,23.64
2017-05-21T13:05:45.699Z,23.67
2017-05-21T13:06:47.136Z,23.75
2017-05-21T13:07:48.588Z,23.71
2017-05-21T13:08:50.041Z,23.40
2017-05-21T13:09:51.491Z,23.55
2017-05-21T13:10:52.946Z,23.75
2017-05-21T13:11:54.385Z,23.68
2017-05-21T13:12:55.828Z,23.34
2017-05-21T13:13:57.266Z,23.40
2017-05-21T13:14:58.708Z,23.45
2017-05-21T13:16:00.153Z,23.55
2017-05-21T13:17:01.589Z,23.22
2017-05-21T13:18:03.033Z,23.14
2017-05-21T13:19:05.275Z,23.15